sensor_id;sensor_type;location;lat;lon;timestamp;temperature;humidity
39099;DHT22;24844;52.380;7.018;2022-08-21T00:00:00;17.50;99.90
39099;DHT22;24844;52.380;7.018;2022-08-21T00:02:27;17.50;99.90
39099;DHT22;24844;52.380;7.018;2022-08-21T00:04:54;17.50;99.90
39099;DHT22;24844;52.380;7.018;2022-08-21T00:07:20;17.50;99.90
39099;DHT22;24844;52.380;7.018;2022-08-21T00:09:46;17.50;99.90
39099;DHT22;24844;52.380;7.018;2022-08-21T00:12:12;17.30;99.90
39099;DHT22;24844;52.380;7.018;2022-08-21T00:14:37;17.30;99.90
39099;DHT22;24844;52.380;7.018;2022-08-21T00:17:04;17.20;99.90
39099;DHT22;24844;52.380;7.018;2022-08-21T00:19:30;17.20;99.90
39099;DHT22;24844;52.380;7.018;2022-08-21T00:21:56;17.00;99.90
39099;DHT22;24844;52.380;7.018;2022-08-21T00:24:23;17.00;99.90
39099;DHT22;24844;52.380;7.018;2022-08-21T00:26:49;17.00;99.90
39099;DHT22;24844;52.380;7.018;2022-08-21T00:29:15;16.90;99.90
39099;DHT22;24844;52.380;7.018;2022-08-21T00:31:42;16.90;99.90
39099;DHT22;24844;52.380;7.018;2022-08-21T00:34:09;16.90;99.90
39099;DHT22;24844;52.380;7.018;2022-08-21T00:36:36;16.80;99.90
39099;DHT22;24844;52.380;7.018;2022-08-21T00:39:05;16.80;99.90
39099;DHT22;24844;52.380;7.018;2022-08-21T00:41:32;16.80;99.90
39099;DHT22;24844;52.380;7.018;2022-08-21T00:43:58;16.70;99.90
39099;DHT22;24844;52.380;7.018;2022-08-21T00:46:24;16.60;99.90
39099;DHT22;24844;52.380;7.018;2022-08-21T00:48:49;16.60;99.90
39099;DHT22;24844;52.380;7.018;2022-08-21T00:51:24;16.60;99.90
39099;DHT22;24844;52.380;7.018;2022-08-21T00:53:57;16.60;99.90
39099;DHT22;24844;52.380;7.018;2022-08-21T00:56:24;16.50;99.90
39099;DHT22;24844;52.380;7.018;2022-08-21T00:58:50;16.50;99.90
39099;DHT22;24844;52.380;7.018;2022-08-21T01:01:17;16.40;99.90
39099;DHT22;24844;52.380;7.018;2022-08-21T01:03:43;16.30;99.90
39099;DHT22;24844;52.380;7.018;2022-08-21T01:06:09;16.30;99.90
39099;DHT22;24844;52.380;7.018;2022-08-21T01:08:35;16.20;99.90
39099;DHT22;24844;52.380;7.018;2022-08-21T01:11:02;16.10;99.90
39099;DHT22;24844;52.380;7.018;2022-08-21T01:13:29;16.10;99.90
39099;DHT22;24844;52.380;7.018;2022-08-21T01:15:56;16.00;99.90
39099;DHT22;24844;52.380;7.018;2022-08-21T01:18:25;15.90;99.90
39099;DHT22;24844;52.380;7.018;2022-08-21T01:21:07;15.90;99.90
39099;DHT22;24844;52.380;7.018;2022-08-21T01:23:36;15.90;99.90
39099;DHT22;24844;52.380;7.018;2022-08-21T01:26:02;15.80;99.90
39099;DHT22;24844;52.380;7.018;2022-08-21T01:28:32;15.80;99.90
39099;DHT22;24844;52.380;7.018;2022-08-21T01:30:59;15.70;99.90
39099;DHT22;24844;52.380;7.018;2022-08-21T01:33:26;15.70;99.90
39099;DHT22;24844;52.380;7.018;2022-08-21T01:35:52;15.70;99.90
39099;DHT22;24844;52.380;7.018;2022-08-21T01:38:18;15.70;99.90
39099;DHT22;24844;52.380;7.018;2022-08-21T01:40:43;15.70;99.90
39099;DHT22;24844;52.380;7.018;2022-08-21T01:43:09;15.70;99.90
39099;DHT22;24844;52.380;7.018;2022-08-21T01:45:34;15.60;99.90
39099;DHT22;24844;52.380;7.018;2022-08-21T01:48:00;15.60;99.90
39099;DHT22;24844;52.380;7.018;2022-08-21T01:50:26;15.60;99.90
39099;DHT22;24844;52.380;7.018;2022-08-21T01:52:51;15.50;99.90
39099;DHT22;24844;52.380;7.018;2022-08-21T01:55:19;15.50;99.90
39099;DHT22;24844;52.380;7.018;2022-08-21T01:57:45;15.60;99.90
39099;DHT22;24844;52.380;7.018;2022-08-21T02:00:13;15.60;99.90
39099;DHT22;24844;52.380;7.018;2022-08-21T02:02:40;15.60;99.90
39099;DHT22;24844;52.380;7.018;2022-08-21T02:05:08;15.60;99.90
39099;DHT22;24844;52.380;7.018;2022-08-21T02:07:43;15.50;99.90
39099;DHT22;24844;52.380;7.018;2022-08-21T02:10:11;15.60;99.90
39099;DHT22;24844;52.380;7.018;2022-08-21T02:12:38;15.60;99.90
39099;DHT22;24844;52.380;7.018;2022-08-21T02:15:05;15.60;99.90
39099;DHT22;24844;52.380;7.018;2022-08-21T02:17:40;15.50;99.90
39099;DHT22;24844;52.380;7.018;2022-08-21T02:20:07;15.60;99.90
39099;DHT22;24844;52.380;7.018;2022-08-21T02:22:32;15.60;99.90
39099;DHT22;24844;52.380;7.018;2022-08-21T02:24:58;15.60;99.90
39099;DHT22;24844;52.380;7.018;2022-08-21T02:27:24;15.60;99.90
39099;DHT22;24844;52.380;7.018;2022-08-21T02:29:50;15.50;99.90
39099;DHT22;24844;52.380;7.018;2022-08-21T02:32:15;15.50;99.90
39099;DHT22;24844;52.380;7.018;2022-08-21T02:34:41;15.50;99.90
39099;DHT22;24844;52.380;7.018;2022-08-21T02:37:06;15.50;99.90
39099;DHT22;24844;52.380;7.018;2022-08-21T02:39:32;15.40;99.90
39099;DHT22;24844;52.380;7.018;2022-08-21T02:41:58;15.40;99.90
39099;DHT22;24844;52.380;7.018;2022-08-21T02:44:23;15.40;99.90
39099;DHT22;24844;52.380;7.018;2022-08-21T02:46:49;15.30;99.90
39099;DHT22;24844;52.380;7.018;2022-08-21T02:49:14;15.20;99.90
39099;DHT22;24844;52.380;7.018;2022-08-21T02:51:40;15.10;99.90
39099;DHT22;24844;52.380;7.018;2022-08-21T02:54:06;15.20;99.90
39099;DHT22;24844;52.380;7.018;2022-08-21T02:56:32;15.20;99.90
39099;DHT22;24844;52.380;7.018;2022-08-21T02:58:57;15.10;99.90
39099;DHT22;24844;52.380;7.018;2022-08-21T03:01:23;15.00;99.90
39099;DHT22;24844;52.380;7.018;2022-08-21T03:03:48;15.00;99.90
39099;DHT22;24844;52.380;7.018;2022-08-21T03:06:19;14.90;99.90
39099;DHT22;24844;52.380;7.018;2022-08-21T03:08:45;14.90;99.90
39099;DHT22;24844;52.380;7.018;2022-08-21T03:11:12;14.90;99.90
39099;DHT22;24844;52.380;7.018;2022-08-21T03:13:38;14.80;99.90
39099;DHT22;24844;52.380;7.018;2022-08-21T03:16:04;14.80;99.90
39099;DHT22;24844;52.380;7.018;2022-08-21T03:18:30;14.80;99.90
39099;DHT22;24844;52.380;7.018;2022-08-21T03:20:55;14.80;99.90
39099;DHT22;24844;52.380;7.018;2022-08-21T03:23:21;14.80;99.90
39099;DHT22;24844;52.380;7.018;2022-08-21T03:25:48;14.70;99.90
39099;DHT22;24844;52.380;7.018;2022-08-21T03:28:20;14.60;99.90
39099;DHT22;24844;52.380;7.018;2022-08-21T03:30:48;14.70;99.90
39099;DHT22;24844;52.380;7.018;2022-08-21T03:33:15;14.70;99.90
39099;DHT22;24844;52.380;7.018;2022-08-21T03:35:42;14.70;99.90
39099;DHT22;24844;52.380;7.018;2022-08-21T03:38:08;14.60;99.90
39099;DHT22;24844;52.380;7.018;2022-08-21T03:40:33;14.70;99.90
39099;DHT22;24844;52.380;7.018;2022-08-21T03:42:59;14.70;99.90
39099;DHT22;24844;52.380;7.018;2022-08-21T03:45:25;14.70;99.90
39099;DHT22;24844;52.380;7.018;2022-08-21T03:47:58;14.70;99.90
39099;DHT22;24844;52.380;7.018;2022-08-21T03:50:26;14.60;99.90
39099;DHT22;24844;52.380;7.018;2022-08-21T03:52:52;14.60;99.90
39099;DHT22;24844;52.380;7.018;2022-08-21T03:55:18;14.60;99.90
39099;DHT22;24844;52.380;7.018;2022-08-21T03:57:44;14.50;99.90
39099;DHT22;24844;52.380;7.018;2022-08-21T04:00:10;14.50;99.90
39099;DHT22;24844;52.380;7.018;2022-08-21T04:02:40;14.50;99.90
39099;DHT22;24844;52.380;7.018;2022-08-21T04:05:07;14.50;99.90
39099;DHT22;24844;52.380;7.018;2022-08-21T04:07:32;14.60;99.90
39099;DHT22;24844;52.380;7.018;2022-08-21T04:09:58;14.60;99.90
39099;DHT22;24844;52.380;7.018;2022-08-21T04:12:24;14.60;99.90
39099;DHT22;24844;52.380;7.018;2022-08-21T04:14:50;14.60;99.90
39099;DHT22;24844;52.380;7.018;2022-08-21T04:17:18;14.50;99.90
39099;DHT22;24844;52.380;7.018;2022-08-21T04:19:44;14.30;99.90
39099;DHT22;24844;52.380;7.018;2022-08-21T04:22:10;14.20;99.90
39099;DHT22;24844;52.380;7.018;2022-08-21T04:24:36;14.10;99.90
39099;DHT22;24844;52.380;7.018;2022-08-21T04:27:02;14.20;99.90
39099;DHT22;24844;52.380;7.018;2022-08-21T04:29:27;14.20;99.90
39099;DHT22;24844;52.380;7.018;2022-08-21T04:31:53;14.30;99.90
39099;DHT22;24844;52.380;7.018;2022-08-21T04:34:18;14.40;99.90
39099;DHT22;24844;52.380;7.018;2022-08-21T04:36:44;14.40;99.90
39099;DHT22;24844;52.380;7.018;2022-08-21T04:39:10;14.50;99.90
39099;DHT22;24844;52.380;7.018;2022-08-21T04:41:35;14.50;99.90
39099;DHT22;24844;52.380;7.018;2022-08-21T04:44:02;14.50;99.90
39099;DHT22;24844;52.380;7.018;2022-08-21T04:46:28;14.30;99.90
39099;DHT22;24844;52.380;7.018;2022-08-21T04:48:53;14.30;99.90
39099;DHT22;24844;52.380;7.018;2022-08-21T04:51:23;14.40;99.90
39099;DHT22;24844;52.380;7.018;2022-08-21T04:53:52;14.40;99.90
39099;DHT22;24844;52.380;7.018;2022-08-21T04:56:25;14.50;99.90
39099;DHT22;24844;52.380;7.018;2022-08-21T04:58:53;14.50;99.90
39099;DHT22;24844;52.380;7.018;2022-08-21T05:01:23;14.40;99.90
39099;DHT22;24844;52.380;7.018;2022-08-21T05:03:54;14.60;99.90
39099;DHT22;24844;52.380;7.018;2022-08-21T05:06:21;14.60;99.90
39099;DHT22;24844;52.380;7.018;2022-08-21T05:08:48;14.60;99.90
39099;DHT22;24844;52.380;7.018;2022-08-21T05:11:14;14.80;99.90
39099;DHT22;24844;52.380;7.018;2022-08-21T05:13:40;14.90;99.90
39099;DHT22;24844;52.380;7.018;2022-08-21T05:16:07;15.10;99.90
39099;DHT22;24844;52.380;7.018;2022-08-21T05:18:32;15.20;99.90
39099;DHT22;24844;52.380;7.018;2022-08-21T05:20:58;15.20;99.90
39099;DHT22;24844;52.380;7.018;2022-08-21T05:23:24;15.20;99.90
39099;DHT22;24844;52.380;7.018;2022-08-21T05:25:51;15.20;99.90
39099;DHT22;24844;52.380;7.018;2022-08-21T05:28:17;15.10;99.90
39099;DHT22;24844;52.380;7.018;2022-08-21T05:30:43;15.20;99.90
39099;DHT22;24844;52.380;7.018;2022-08-21T05:33:09;15.00;99.90
39099;DHT22;24844;52.380;7.018;2022-08-21T05:35:35;14.90;99.90
39099;DHT22;24844;52.380;7.018;2022-08-21T05:38:02;14.90;99.90
39099;DHT22;24844;52.380;7.018;2022-08-21T05:40:28;14.90;99.90
39099;DHT22;24844;52.380;7.018;2022-08-21T05:42:54;15.00;99.90
39099;DHT22;24844;52.380;7.018;2022-08-21T05:45:26;15.10;99.90
39099;DHT22;24844;52.380;7.018;2022-08-21T05:47:52;15.10;99.90
39099;DHT22;24844;52.380;7.018;2022-08-21T05:50:18;15.30;99.90
39099;DHT22;24844;52.380;7.018;2022-08-21T05:52:44;15.40;99.90
39099;DHT22;24844;52.380;7.018;2022-08-21T05:55:10;15.20;99.90
39099;DHT22;24844;52.380;7.018;2022-08-21T05:57:35;15.30;99.90
39099;DHT22;24844;52.380;7.018;2022-08-21T06:00:01;15.50;99.90
39099;DHT22;24844;52.380;7.018;2022-08-21T06:02:27;15.50;99.90
39099;DHT22;24844;52.380;7.018;2022-08-21T06:04:52;15.50;99.90
39099;DHT22;24844;52.380;7.018;2022-08-21T06:07:18;15.60;99.90
39099;DHT22;24844;52.380;7.018;2022-08-21T06:09:43;15.70;99.90
39099;DHT22;24844;52.380;7.018;2022-08-21T06:12:11;15.80;99.90
39099;DHT22;24844;52.380;7.018;2022-08-21T06:14:39;15.90;99.90
39099;DHT22;24844;52.380;7.018;2022-08-21T06:17:06;16.00;99.90
39099;DHT22;24844;52.380;7.018;2022-08-21T06:19:32;16.20;99.90
39099;DHT22;24844;52.380;7.018;2022-08-21T06:21:58;16.20;99.90
39099;DHT22;24844;52.380;7.018;2022-08-21T06:24:24;16.40;99.90
39099;DHT22;24844;52.380;7.018;2022-08-21T06:26:50;16.60;99.90
39099;DHT22;24844;52.380;7.018;2022-08-21T06:29:15;16.70;99.90
39099;DHT22;24844;52.380;7.018;2022-08-21T06:31:42;16.80;99.90
39099;DHT22;24844;52.380;7.018;2022-08-21T06:34:08;17.00;99.90
39099;DHT22;24844;52.380;7.018;2022-08-21T06:36:34;17.10;99.90
39099;DHT22;24844;52.380;7.018;2022-08-21T06:38:59;17.10;99.90
39099;DHT22;24844;52.380;7.018;2022-08-21T06:41:25;17.30;99.90
39099;DHT22;24844;52.380;7.018;2022-08-21T06:43:51;17.60;99.90
39099;DHT22;24844;52.380;7.018;2022-08-21T06:46:16;17.80;99.90
39099;DHT22;24844;52.380;7.018;2022-08-21T06:48:42;17.80;99.90
39099;DHT22;24844;52.380;7.018;2022-08-21T06:51:07;17.70;99.90
39099;DHT22;24844;52.380;7.018;2022-08-21T06:53:33;18.00;99.90
39099;DHT22;24844;52.380;7.018;2022-08-21T06:55:59;17.90;99.90
39099;DHT22;24844;52.380;7.018;2022-08-21T06:58:24;18.10;99.90
39099;DHT22;24844;52.380;7.018;2022-08-21T07:00:50;18.30;99.90
39099;DHT22;24844;52.380;7.018;2022-08-21T07:03:26;18.40;99.90
39099;DHT22;24844;52.380;7.018;2022-08-21T07:05:53;18.40;99.90
39099;DHT22;24844;52.380;7.018;2022-08-21T07:08:20;18.50;99.90
39099;DHT22;24844;52.380;7.018;2022-08-21T07:10:46;18.70;99.90
39099;DHT22;24844;52.380;7.018;2022-08-21T07:13:12;19.10;99.90
39099;DHT22;24844;52.380;7.018;2022-08-21T07:15:38;19.30;99.90
39099;DHT22;24844;52.380;7.018;2022-08-21T07:18:03;19.70;99.90
39099;DHT22;24844;52.380;7.018;2022-08-21T07:20:30;19.80;99.90
39099;DHT22;24844;52.380;7.018;2022-08-21T07:23:03;19.90;99.90
39099;DHT22;24844;52.380;7.018;2022-08-21T07:25:29;20.10;99.90
39099;DHT22;24844;52.380;7.018;2022-08-21T07:27:55;20.40;99.90
39099;DHT22;24844;52.380;7.018;2022-08-21T07:30:21;20.70;99.90
39099;DHT22;24844;52.380;7.018;2022-08-21T07:32:47;20.80;99.90
39099;DHT22;24844;52.380;7.018;2022-08-21T07:35:15;21.10;99.90
39099;DHT22;24844;52.380;7.018;2022-08-21T07:37:40;21.70;99.90
39099;DHT22;24844;52.380;7.018;2022-08-21T07:40:07;22.20;99.90
39099;DHT22;24844;52.380;7.018;2022-08-21T07:42:32;22.60;99.90
39099;DHT22;24844;52.380;7.018;2022-08-21T08:14:11;33.20;99.90
39099;DHT22;24844;52.380;7.018;2022-08-21T08:16:37;33.50;99.90
39099;DHT22;24844;52.380;7.018;2022-08-21T08:19:02;34.30;99.50
39099;DHT22;24844;52.380;7.018;2022-08-21T08:21:28;34.20;97.90
39099;DHT22;24844;52.380;7.018;2022-08-21T08:23:54;33.60;96.50
39099;DHT22;24844;52.380;7.018;2022-08-21T08:26:20;33.10;96.00
39099;DHT22;24844;52.380;7.018;2022-08-21T08:28:45;34.10;96.30
39099;DHT22;24844;52.380;7.018;2022-08-21T08:31:13;32.10;94.60
39099;DHT22;24844;52.380;7.018;2022-08-21T08:33:39;32.20;96.00
39099;DHT22;24844;52.380;7.018;2022-08-21T08:36:05;33.60;95.10
39099;DHT22;24844;52.380;7.018;2022-08-21T08:38:37;32.90;94.60
39099;DHT22;24844;52.380;7.018;2022-08-21T08:41:12;34.20;94.60
39099;DHT22;24844;52.380;7.018;2022-08-21T08:43:40;34.50;93.80
39099;DHT22;24844;52.380;7.018;2022-08-21T08:46:25;34.50;93.10
39099;DHT22;24844;52.380;7.018;2022-08-21T08:49:00;33.80;92.10
39099;DHT22;24844;52.380;7.018;2022-08-21T08:51:43;32.00;93.20
39099;DHT22;24844;52.380;7.018;2022-08-21T09:25:08;34.80;92.70
39099;DHT22;24844;52.380;7.018;2022-08-21T09:27:36;35.20;92.30
39099;DHT22;24844;52.380;7.018;2022-08-21T09:30:04;35.50;91.50
39099;DHT22;24844;52.380;7.018;2022-08-21T09:32:32;35.30;90.80
39099;DHT22;24844;52.380;7.018;2022-08-21T09:35:17;33.90;90.40
39099;DHT22;24844;52.380;7.018;2022-08-21T09:38:01;33.60;90.80
39099;DHT22;24844;52.380;7.018;2022-08-21T09:40:42;33.90;90.90
39099;DHT22;24844;52.380;7.018;2022-08-21T09:45:38;35.00;87.90
39099;DHT22;24844;52.380;7.018;2022-08-21T09:48:25;35.30;88.50
39099;DHT22;24844;52.380;7.018;2022-08-21T09:50:52;35.70;89.00
39099;DHT22;24844;52.380;7.018;2022-08-21T09:53:20;36.10;87.70
39099;DHT22;24844;52.380;7.018;2022-08-21T09:55:55;35.80;87.70
39099;DHT22;24844;52.380;7.018;2022-08-21T09:58:43;34.30;87.50
39099;DHT22;24844;52.380;7.018;2022-08-21T10:01:15;35.00;87.60
39099;DHT22;24844;52.380;7.018;2022-08-21T10:03:41;35.00;88.00
39099;DHT22;24844;52.380;7.018;2022-08-21T10:06:09;34.90;87.40
39099;DHT22;24844;52.380;7.018;2022-08-21T10:08:38;35.50;88.40
39099;DHT22;24844;52.380;7.018;2022-08-21T10:11:12;36.00;86.60
39099;DHT22;24844;52.380;7.018;2022-08-21T10:16:54;36.40;86.10
39099;DHT22;24844;52.380;7.018;2022-08-21T10:23:01;37.00;84.70
39099;DHT22;24844;52.380;7.018;2022-08-21T10:25:08;37.90;83.80
39099;DHT22;24844;52.380;7.018;2022-08-21T10:30:38;37.70;82.50
39099;DHT22;24844;52.380;7.018;2022-08-21T10:44:29;37.50;81.30
39099;DHT22;24844;52.380;7.018;2022-08-21T10:47:06;37.80;81.00
39099;DHT22;24844;52.380;7.018;2022-08-21T10:49:41;37.50;80.20
39099;DHT22;24844;52.380;7.018;2022-08-21T10:57:33;38.00;80.90
39099;DHT22;24844;52.380;7.018;2022-08-21T11:00:07;37.70;81.10
39099;DHT22;24844;52.380;7.018;2022-08-21T11:02:45;37.40;80.90
39099;DHT22;24844;52.380;7.018;2022-08-21T11:05:27;37.00;79.50
39099;DHT22;24844;52.380;7.018;2022-08-21T11:08:03;35.70;81.40
39099;DHT22;24844;52.380;7.018;2022-08-21T11:10:41;36.40;82.20
39099;DHT22;24844;52.380;7.018;2022-08-21T11:15:56;34.80;83.80
39099;DHT22;24844;52.380;7.018;2022-08-21T11:18:37;34.20;83.80
39099;DHT22;24844;52.380;7.018;2022-08-21T11:52:33;28.40;93.70
39099;DHT22;24844;52.380;7.018;2022-08-21T11:55:07;28.10;93.00
39099;DHT22;24844;52.380;7.018;2022-08-21T11:57:49;27.90;93.70
39099;DHT22;24844;52.380;7.018;2022-08-21T12:00:33;28.20;93.00
39099;DHT22;24844;52.380;7.018;2022-08-21T12:03:11;27.90;93.90
39099;DHT22;24844;52.380;7.018;2022-08-21T12:05:42;27.70;94.50
39099;DHT22;24844;52.380;7.018;2022-08-21T12:10:46;27.60;93.60
39099;DHT22;24844;52.380;7.018;2022-08-21T12:13:26;27.40;94.40
39099;DHT22;24844;52.380;7.018;2022-08-21T12:15:51;27.30;94.00
39099;DHT22;24844;52.380;7.018;2022-08-21T12:18:30;27.00;94.40
39099;DHT22;24844;52.380;7.018;2022-08-21T12:21:04;27.10;94.20
39099;DHT22;24844;52.380;7.018;2022-08-21T12:26:25;26.90;95.90
39099;DHT22;24844;52.380;7.018;2022-08-21T12:28:51;26.90;95.50
39099;DHT22;24844;52.380;7.018;2022-08-21T12:31:27;27.00;95.40
39099;DHT22;24844;52.380;7.018;2022-08-21T12:34:02;27.00;95.40
39099;DHT22;24844;52.380;7.018;2022-08-21T12:36:44;27.10;95.30
39099;DHT22;24844;52.380;7.018;2022-08-21T12:39:22;26.80;95.30
39099;DHT22;24844;52.380;7.018;2022-08-21T12:42:11;27.00;95.30
39099;DHT22;24844;52.380;7.018;2022-08-21T12:47:29;27.10;94.80
39099;DHT22;24844;52.380;7.018;2022-08-21T12:50:05;27.40;95.00
39099;DHT22;24844;52.380;7.018;2022-08-21T12:52:35;27.30;95.20
39099;DHT22;24844;52.380;7.018;2022-08-21T12:55:03;27.10;95.20
39099;DHT22;24844;52.380;7.018;2022-08-21T12:57:30;27.20;95.70
39099;DHT22;24844;52.380;7.018;2022-08-21T12:59:58;27.20;95.80
39099;DHT22;24844;52.380;7.018;2022-08-21T13:02:28;26.80;95.90
39099;DHT22;24844;52.380;7.018;2022-08-21T13:04:55;26.80;95.40
39099;DHT22;24844;52.380;7.018;2022-08-21T13:07:31;26.90;96.00
39099;DHT22;24844;52.380;7.018;2022-08-21T13:10:22;27.00;96.50
39099;DHT22;24844;52.380;7.018;2022-08-21T13:12:49;27.40;96.00
39099;DHT22;24844;52.380;7.018;2022-08-21T13:15:25;27.30;95.80
39099;DHT22;24844;52.380;7.018;2022-08-21T13:17:51;27.20;95.90
39099;DHT22;24844;52.380;7.018;2022-08-21T13:20:23;26.60;95.60
39099;DHT22;24844;52.380;7.018;2022-08-21T13:22:50;26.80;96.20
39099;DHT22;24844;52.380;7.018;2022-08-21T13:25:18;26.90;96.10
39099;DHT22;24844;52.380;7.018;2022-08-21T13:28:05;27.00;95.90
39099;DHT22;24844;52.380;7.018;2022-08-21T13:30:31;27.20;96.00
39099;DHT22;24844;52.380;7.018;2022-08-21T13:33:00;27.50;96.00
39099;DHT22;24844;52.380;7.018;2022-08-21T13:37:52;28.00;95.40
39099;DHT22;24844;52.380;7.018;2022-08-21T13:40:26;27.80;95.50
39099;DHT22;24844;52.380;7.018;2022-08-21T13:42:53;27.90;95.60
39099;DHT22;24844;52.380;7.018;2022-08-21T13:45:31;27.70;95.10
39099;DHT22;24844;52.380;7.018;2022-08-21T13:48:00;27.30;95.10
39099;DHT22;24844;52.380;7.018;2022-08-21T13:50:26;26.50;95.70
39099;DHT22;24844;52.380;7.018;2022-08-21T13:53:00;26.00;96.30
39099;DHT22;24844;52.380;7.018;2022-08-21T13:55:40;26.50;96.60
39099;DHT22;24844;52.380;7.018;2022-08-21T13:58:07;27.00;96.30
39099;DHT22;24844;52.380;7.018;2022-08-21T14:00:50;27.40;96.20
39099;DHT22;24844;52.380;7.018;2022-08-21T14:03:41;27.40;95.90
39099;DHT22;24844;52.380;7.018;2022-08-21T14:06:19;27.50;96.00
39099;DHT22;24844;52.380;7.018;2022-08-21T14:09:02;27.60;95.90
39099;DHT22;24844;52.380;7.018;2022-08-21T14:11:34;27.90;95.20
39099;DHT22;24844;52.380;7.018;2022-08-21T14:14:04;27.90;95.90
39099;DHT22;24844;52.380;7.018;2022-08-21T14:16:52;27.80;95.80
39099;DHT22;24844;52.380;7.018;2022-08-21T14:21:44;27.80;95.10
39099;DHT22;24844;52.380;7.018;2022-08-21T14:26:52;27.80;95.60
39099;DHT22;24844;52.380;7.018;2022-08-21T14:29:19;28.10;95.30
39099;DHT22;24844;52.380;7.018;2022-08-21T14:31:54;28.20;95.30
39099;DHT22;24844;52.380;7.018;2022-08-21T14:34:21;28.20;95.10
39099;DHT22;24844;52.380;7.018;2022-08-21T14:36:48;28.40;95.00
39099;DHT22;24844;52.380;7.018;2022-08-21T14:39:14;28.80;94.80
39099;DHT22;24844;52.380;7.018;2022-08-21T14:41:40;28.40;94.20
39099;DHT22;24844;52.380;7.018;2022-08-21T14:44:07;28.60;94.40
39099;DHT22;24844;52.380;7.018;2022-08-21T14:46:34;28.60;94.20
39099;DHT22;24844;52.380;7.018;2022-08-21T14:49:01;28.50;94.10
39099;DHT22;24844;52.380;7.018;2022-08-21T14:51:27;28.30;94.00
39099;DHT22;24844;52.380;7.018;2022-08-21T14:53:52;28.40;94.00
39099;DHT22;24844;52.380;7.018;2022-08-21T14:56:18;28.40;93.30
39099;DHT22;24844;52.380;7.018;2022-08-21T14:58:47;28.50;93.50
39099;DHT22;24844;52.380;7.018;2022-08-21T15:01:17;28.30;93.20
39099;DHT22;24844;52.380;7.018;2022-08-21T15:03:44;28.60;93.20
39099;DHT22;24844;52.380;7.018;2022-08-21T15:06:10;28.70;93.40
39099;DHT22;24844;52.380;7.018;2022-08-21T15:08:36;28.70;93.40
39099;DHT22;24844;52.380;7.018;2022-08-21T15:11:03;28.60;93.20
39099;DHT22;24844;52.380;7.018;2022-08-21T15:13:29;28.20;93.50
39099;DHT22;24844;52.380;7.018;2022-08-21T15:15:55;28.20;93.50
39099;DHT22;24844;52.380;7.018;2022-08-21T15:18:23;28.30;93.50
39099;DHT22;24844;52.380;7.018;2022-08-21T15:20:49;28.00;93.50
39099;DHT22;24844;52.380;7.018;2022-08-21T15:23:16;27.70;94.10
39099;DHT22;24844;52.380;7.018;2022-08-21T15:25:44;27.80;94.00
39099;DHT22;24844;52.380;7.018;2022-08-21T15:28:11;27.60;94.00
39099;DHT22;24844;52.380;7.018;2022-08-21T15:30:38;27.50;94.60
39099;DHT22;24844;52.380;7.018;2022-08-21T15:33:04;27.80;94.30
39099;DHT22;24844;52.380;7.018;2022-08-21T15:35:30;27.90;93.70
39099;DHT22;24844;52.380;7.018;2022-08-21T15:37:56;27.80;93.90
39099;DHT22;24844;52.380;7.018;2022-08-21T15:40:22;27.70;94.50
39099;DHT22;24844;52.380;7.018;2022-08-21T15:42:48;27.80;94.40
39099;DHT22;24844;52.380;7.018;2022-08-21T15:45:14;28.20;94.00
39099;DHT22;24844;52.380;7.018;2022-08-21T15:47:43;28.10;94.10
39099;DHT22;24844;52.380;7.018;2022-08-21T15:50:10;28.10;95.70
39099;DHT22;24844;52.380;7.018;2022-08-21T15:52:36;28.10;94.80
39099;DHT22;24844;52.380;7.018;2022-08-21T15:55:03;28.10;94.40
39099;DHT22;24844;52.380;7.018;2022-08-21T15:57:29;28.40;94.00
39099;DHT22;24844;52.380;7.018;2022-08-21T16:00:00;28.30;94.10
39099;DHT22;24844;52.380;7.018;2022-08-21T16:02:35;28.50;93.90
39099;DHT22;24844;52.380;7.018;2022-08-21T16:05:01;28.40;94.00
39099;DHT22;24844;52.380;7.018;2022-08-21T16:07:27;28.20;94.10
39099;DHT22;24844;52.380;7.018;2022-08-21T16:09:52;28.00;94.10
39099;DHT22;24844;52.380;7.018;2022-08-21T16:12:25;27.90;94.50
39099;DHT22;24844;52.380;7.018;2022-08-21T16:14:52;27.60;94.20
39099;DHT22;24844;52.380;7.018;2022-08-21T16:17:19;27.60;94.30
39099;DHT22;24844;52.380;7.018;2022-08-21T16:19:45;27.40;94.60
39099;DHT22;24844;52.380;7.018;2022-08-21T16:22:11;27.10;95.00
39099;DHT22;24844;52.380;7.018;2022-08-21T16:24:37;27.00;95.10
39099;DHT22;24844;52.380;7.018;2022-08-21T16:27:03;27.00;95.40
39099;DHT22;24844;52.380;7.018;2022-08-21T16:29:34;26.80;95.70
39099;DHT22;24844;52.380;7.018;2022-08-21T16:32:01;26.70;96.00
39099;DHT22;24844;52.380;7.018;2022-08-21T16:34:27;26.60;96.00
39099;DHT22;24844;52.380;7.018;2022-08-21T16:36:53;26.40;96.60
39099;DHT22;24844;52.380;7.018;2022-08-21T16:39:18;26.40;96.70
39099;DHT22;24844;52.380;7.018;2022-08-21T16:41:44;26.30;97.30
39099;DHT22;24844;52.380;7.018;2022-08-21T16:44:10;26.30;97.40
39099;DHT22;24844;52.380;7.018;2022-08-21T16:46:39;26.10;98.00
39099;DHT22;24844;52.380;7.018;2022-08-21T16:49:05;26.10;98.70
39099;DHT22;24844;52.380;7.018;2022-08-21T16:51:30;26.20;99.10
39099;DHT22;24844;52.380;7.018;2022-08-21T16:53:57;25.90;99.90
39099;DHT22;24844;52.380;7.018;2022-08-21T16:56:23;25.90;99.90
39099;DHT22;24844;52.380;7.018;2022-08-21T16:58:49;25.90;99.90
39099;DHT22;24844;52.380;7.018;2022-08-21T17:01:20;25.50;99.90
39099;DHT22;24844;52.380;7.018;2022-08-21T17:03:47;25.60;99.90
39099;DHT22;24844;52.380;7.018;2022-08-21T17:06:15;25.60;99.90
39099;DHT22;24844;52.380;7.018;2022-08-21T17:08:41;25.40;99.90
39099;DHT22;24844;52.380;7.018;2022-08-21T17:11:20;25.40;99.90
39099;DHT22;24844;52.380;7.018;2022-08-21T17:13:46;25.20;99.90
39099;DHT22;24844;52.380;7.018;2022-08-21T17:16:12;25.20;99.90
39099;DHT22;24844;52.380;7.018;2022-08-21T17:18:38;25.30;99.90
39099;DHT22;24844;52.380;7.018;2022-08-21T17:21:04;25.00;99.90
39099;DHT22;24844;52.380;7.018;2022-08-21T17:23:30;24.80;99.90
39099;DHT22;24844;52.380;7.018;2022-08-21T17:25:55;24.70;99.90
39099;DHT22;24844;52.380;7.018;2022-08-21T17:28:24;24.80;99.90
39099;DHT22;24844;52.380;7.018;2022-08-21T17:30:52;24.80;99.90
39099;DHT22;24844;52.380;7.018;2022-08-21T17:33:19;24.70;99.90
39099;DHT22;24844;52.380;7.018;2022-08-21T17:35:45;24.50;99.90
39099;DHT22;24844;52.380;7.018;2022-08-21T17:38:11;24.50;99.90
39099;DHT22;24844;52.380;7.018;2022-08-21T17:40:38;24.40;99.90
39099;DHT22;24844;52.380;7.018;2022-08-21T17:43:06;24.40;99.90
39099;DHT22;24844;52.380;7.018;2022-08-21T17:45:32;24.30;99.90
39099;DHT22;24844;52.380;7.018;2022-08-21T17:47:58;24.30;99.90
39099;DHT22;24844;52.380;7.018;2022-08-21T17:50:23;24.30;99.90
39099;DHT22;24844;52.380;7.018;2022-08-21T17:52:49;24.50;99.90
39099;DHT22;24844;52.380;7.018;2022-08-21T17:55:16;24.40;99.90